Time;durP1;ratioP1;P1;durP2;ratioP2;P2;SDS_P1;SDS_P2;PMS_P1;PMS_P2;Temp;Humidity;BMP_temperature;BMP_pressure;BME280_temperature;BME280_humidity;BME280_pressure;Samples;Min_cycle;Max_cycle;Signal;HPM_P1;HPM_P2
2021/08/22 00:03:36;;;;;;;6.95;2.65;;;21.40;95.50;;;;;;10117884;28;20997;-56
2021/08/22 00:08:27;;;;;;;5.65;2.50;;;21.40;95.80;;;;;;10110394;28;20021;-57
2021/08/22 00:13:19;;;;;;;3.67;2.08;;;21.40;95.60;;;;;;10091644;28;20107;-56
2021/08/22 00:18:09;;;;;;;4.78;2.75;;;21.40;95.90;;;;;;10115497;28;20082;-55
2021/08/22 00:23:00;;;;;;;3.60;2.22;;;21.40;95.20;;;;;;10110302;28;20083;-55
2021/08/22 00:27:51;;;;;;;2.67;2.10;;;21.00;95.00;;;;;;10120519;28;20542;-58
2021/08/22 00:32:41;;;;;;;4.38;1.95;;;21.20;96.00;;;;;;10107681;28;20039;-59
2021/08/22 00:37:32;;;;;;;5.40;2.13;;;21.30;95.50;;;;;;10113333;28;20048;-56
2021/08/22 00:42:33;;;;;;;6.63;2.75;;;21.40;95.90;;;;;;10118228;28;20025;-56
2021/08/22 00:47:25;;;;;;;3.63;1.90;;;21.40;95.80;;;;;;10116020;28;20420;-56
2021/08/22 00:52:16;;;;;;;3.72;2.55;;;21.50;96.10;;;;;;10119695;28;20452;-59
2021/08/22 00:57:07;;;;;;;3.95;2.63;;;21.40;96.30;;;;;;10114044;28;20473;-58
2021/08/22 01:02:00;;;;;;;5.22;2.35;;;21.40;96.10;;;;;;10120684;28;20025;-58
2021/08/22 01:06:56;;;;;;;4.25;2.88;;;21.40;96.00;;;;;;10110681;28;20498;-54
2021/08/22 01:11:48;;;;;;;4.50;2.55;;;21.50;96.00;;;;;;10109326;28;20021;-58
2021/08/22 01:16:50;;;;;;;4.00;2.33;;;21.40;96.10;;;;;;10104920;28;20036;-56
2021/08/22 01:21:41;;;;;;;3.40;2.20;;;21.20;95.90;;;;;;10109785;28;20123;-56
2021/08/22 01:26:37;;;;;;;4.70;2.00;;;21.30;96.10;;;;;;10118339;28;20052;-57
2021/08/22 01:31:32;;;;;;;5.03;2.63;;;21.30;96.10;;;;;;10099608;28;20047;-56
2021/08/22 01:36:24;;;;;;;5.05;2.65;;;21.40;96.10;;;;;;10113115;28;20048;-57
2021/08/22 01:41:16;;;;;;;5.85;2.70;;;21.30;96.30;;;;;;10113419;28;20028;-59
2021/08/22 01:46:08;;;;;;;3.70;2.58;;;21.50;96.50;;;;;;10112965;28;20134;-55
2021/08/22 01:51:00;;;;;;;4.60;2.50;;;21.50;96.40;;;;;;10091338;28;20199;-55
2021/08/22 01:55:53;;;;;;;5.00;2.97;;;21.40;96.10;;;;;;10109560;28;20536;-55
2021/08/22 02:00:43;;;;;;;4.13;2.58;;;21.40;96.10;;;;;;10110712;28;20021;-55
2021/08/22 02:05:37;;;;;;;3.97;2.50;;;21.40;96.20;;;;;;10121474;28;20200;-55
2021/08/22 02:10:32;;;;;;;4.57;2.55;;;21.40;96.50;;;;;;10125806;28;20021;-59
2021/08/22 02:15:28;;;;;;;3.50;2.28;;;21.30;95.90;;;;;;10116157;28;20025;-57
2021/08/22 02:20:20;;;;;;;2.60;2.10;;;21.30;96.20;;;;;;10124328;28;20066;-57
2021/08/22 02:25:10;;;;;;;4.05;2.00;;;21.30;96.10;;;;;;10120559;28;20085;-58
2021/08/22 02:30:03;;;;;;;4.78;2.63;;;21.20;95.80;;;;;;10116464;28;20017;-58
2021/08/22 02:34:53;;;;;;;3.72;2.00;;;21.20;95.90;;;;;;10118171;28;20275;-58
2021/08/22 02:39:47;;;;;;;3.45;2.53;;;21.20;96.00;;;;;;10126616;28;20102;-58
2021/08/22 02:44:38;;;;;;;4.35;2.60;;;21.10;96.10;;;;;;10116651;28;20233;-58
2021/08/22 02:49:28;;;;;;;5.63;2.70;;;21.10;96.60;;;;;;10123143;28;20040;-59
2021/08/22 02:54:19;;;;;;;3.78;2.50;;;21.10;96.50;;;;;;10117741;28;20159;-59
2021/08/22 02:59:10;;;;;;;5.40;2.83;;;21.10;96.50;;;;;;10112139;28;20116;-58
2021/08/22 03:04:00;;;;;;;3.90;2.38;;;21.10;96.60;;;;;;10128802;28;20447;-58
2021/08/22 03:08:51;;;;;;;4.93;2.85;;;21.10;96.60;;;;;;10118014;28;20028;-58
2021/08/22 03:13:41;;;;;;;3.92;3.05;;;21.20;96.50;;;;;;10112550;28;20115;-59
2021/08/22 03:18:32;;;;;;;4.47;3.00;;;21.20;97.00;;;;;;10110621;28;20139;-57
2021/08/22 03:23:23;;;;;;;5.28;3.03;;;21.30;96.80;;;;;;10102695;28;20028;-58
2021/08/22 03:28:13;;;;;;;3.85;2.63;;;21.10;96.90;;;;;;10115690;28;20399;-58
2021/08/22 03:33:04;;;;;;;4.82;2.85;;;21.20;97.10;;;;;;10120938;28;20024;-58
2021/08/22 03:37:55;;;;;;;6.60;2.60;;;21.20;97.00;;;;;;10119180;28;20044;-59
2021/08/22 03:42:45;;;;;;;5.75;2.90;;;21.20;97.20;;;;;;10106581;28;20221;-59
2021/08/22 03:47:36;;;;;;;6.50;3.13;;;21.30;97.10;;;;;;10119200;28;20107;-59
2021/08/22 03:52:27;;;;;;;4.15;2.85;;;21.30;97.20;;;;;;10119986;28;20074;-59
2021/08/22 03:57:17;;;;;;;4.38;3.15;;;21.20;96.90;;;;;;10107194;28;20042;-59
2021/08/22 04:02:08;;;;;;;5.25;3.72;;;21.10;97.00;;;;;;10121017;28;20031;-59
2021/08/22 04:06:58;;;;;;;5.75;2.47;;;21.10;97.00;;;;;;10119691;28;20029;-58
2021/08/22 04:11:55;;;;;;;5.38;3.20;;;21.10;96.90;;;;;;10117666;28;20074;-59
2021/08/22 04:16:47;;;;;;;4.60;2.70;;;21.10;97.00;;;;;;10113121;28;20028;-57
2021/08/22 04:21:39;;;;;;;3.83;2.75;;;21.00;97.30;;;;;;10113364;28;20017;-58
2021/08/22 04:26:30;;;;;;;4.78;3.60;;;21.10;97.40;;;;;;10112291;28;20014;-59
2021/08/22 04:31:20;;;;;;;4.68;3.53;;;21.10;97.60;;;;;;10113144;28;20041;-57
2021/08/22 04:36:11;;;;;;;7.40;3.78;;;21.00;97.60;;;;;;10115246;28;20060;-60
2021/08/22 04:41:02;;;;;;;4.72;3.30;;;21.10;97.70;;;;;;10118397;28;20033;-60
2021/08/22 04:45:53;;;;;;;5.28;3.45;;;21.10;97.40;;;;;;10119785;28;20049;-59
2021/08/22 04:50:43;;;;;;;5.15;3.33;;;21.00;97.80;;;;;;10110980;28;20567;-58
2021/08/22 04:55:34;;;;;;;5.38;3.22;;;21.00;97.70;;;;;;10112657;28;20569;-60
2021/08/22 05:00:24;;;;;;;5.80;3.25;;;21.00;97.70;;;;;;10113221;28;20127;-59
2021/08/22 05:05:15;;;;;;;5.75;3.65;;;21.00;98.00;;;;;;10114703;28;20025;-59
2021/08/22 05:10:06;;;;;;;5.53;3.40;;;21.00;97.80;;;;;;10113644;28;20041;-60
2021/08/22 05:14:57;;;;;;;4.72;3.50;;;21.10;97.80;;;;;;10111788;28;20043;-58
2021/08/22 05:19:47;;;;;;;7.55;3.50;;;21.10;97.60;;;;;;10106912;28;20118;-58
2021/08/22 05:24:38;;;;;;;6.55;3.67;;;21.10;97.90;;;;;;10109478;28;20032;-60
2021/08/22 05:29:29;;;;;;;5.28;3.83;;;21.20;97.90;;;;;;10108811;28;20394;-60
2021/08/22 05:34:19;;;;;;;6.97;3.50;;;21.20;97.90;;;;;;10107832;28;20024;-59
2021/08/22 05:39:10;;;;;;;5.20;3.67;;;21.20;97.70;;;;;;10110130;28;20056;-59
2021/08/22 05:44:01;;;;;;;5.68;3.60;;;21.10;98.00;;;;;;10106574;28;20151;-55
2021/08/22 05:48:52;;;;;;;5.95;3.08;;;21.20;98.10;;;;;;10113253;28;20094;-59
2021/08/22 05:53:43;;;;;;;5.88;3.70;;;21.30;97.80;;;;;;10106765;28;20537;-55
2021/08/22 05:58:34;;;;;;;6.35;3.10;;;21.30;97.80;;;;;;10111634;28;20040;-62
2021/08/22 06:03:24;;;;;;;5.60;3.47;;;21.30;97.70;;;;;;10107980;28;20485;-60
2021/08/22 06:08:16;;;;;;;4.65;3.22;;;21.40;97.80;;;;;;10109270;28;20036;-60
2021/08/22 06:13:06;;;;;;;5.85;3.42;;;21.40;97.60;;;;;;10109855;28;20085;-59
2021/08/22 06:17:57;;;;;;;7.25;3.78;;;21.50;97.70;;;;;;10103350;28;20037;-62
2021/08/22 06:22:47;;;;;;;4.18;3.08;;;21.60;97.60;;;;;;10108326;28;20496;-59
2021/08/22 06:27:38;;;;;;;6.55;3.40;;;21.80;97.70;;;;;;10116429;28;20095;-60
2021/08/22 06:32:29;;;;;;;6.55;3.25;;;21.70;97.40;;;;;;10115442;28;20084;-59
2021/08/22 06:37:19;;;;;;;4.65;3.22;;;21.80;97.40;;;;;;10105443;28;20549;-61
2021/08/22 06:42:10;;;;;;;6.10;3.33;;;21.80;97.50;;;;;;10115801;28;20028;-59
2021/08/22 06:47:01;;;;;;;5.13;3.60;;;22.00;97.50;;;;;;10118129;28;20125;-60
2021/08/22 06:51:51;;;;;;;6.00;3.22;;;22.10;97.50;;;;;;10121125;28;20032;-59
2021/08/22 06:56:42;;;;;;;5.28;3.35;;;22.10;97.30;;;;;;10120270;28;20376;-59
2021/08/22 07:01:33;;;;;;;5.07;3.40;;;22.10;97.40;;;;;;10116470;28;20454;-60
2021/08/22 07:06:23;;;;;;;7.78;3.55;;;22.10;97.30;;;;;;10095701;28;20036;-59
2021/08/22 07:11:14;;;;;;;7.60;3.95;;;22.20;97.60;;;;;;10119751;28;20422;-59
2021/08/22 07:16:05;;;;;;;5.20;3.58;;;22.30;97.60;;;;;;10107373;28;20020;-58
2021/08/22 07:20:55;;;;;;;5.13;3.10;;;22.50;97.40;;;;;;10112455;28;20120;-60
2021/08/22 07:25:46;;;;;;;6.10;4.15;;;22.40;97.50;;;;;;10096449;28;20449;-61
2021/08/22 07:30:36;;;;;;;5.68;3.67;;;22.40;97.50;;;;;;10113433;28;20029;-59
2021/08/22 07:35:27;;;;;;;5.47;3.00;;;22.40;97.40;;;;;;10118444;28;20146;-60
2021/08/22 07:40:18;;;;;;;4.45;3.08;;;22.50;97.70;;;;;;10119429;28;20863;-59
2021/08/22 07:45:09;;;;;;;4.63;3.47;;;22.50;97.50;;;;;;10119619;28;20221;-62
2021/08/22 07:50:00;;;;;;;5.68;3.05;;;22.60;97.40;;;;;;10120927;28;20534;-61
2021/08/22 07:54:51;;;;;;;5.15;3.10;;;22.60;97.40;;;;;;10121148;28;20029;-60
2021/08/22 07:59:41;;;;;;;4.53;3.13;;;22.70;97.30;;;;;;10118580;28;20650;-62
2021/08/22 08:04:32;;;;;;;3.60;2.80;;;22.70;97.60;;;;;;10114066;28;20027;-61
2021/08/22 08:09:23;;;;;;;3.65;2.75;;;22.70;97.70;;;;;;10120155;28;20024;-61
2021/08/22 08:14:13;;;;;;;8.20;3.88;;;22.90;97.70;;;;;;10119298;28;20024;-60
2021/08/22 08:19:04;;;;;;;5.80;3.85;;;22.90;97.60;;;;;;10114141;28;20028;-61
2021/08/22 08:23:56;;;;;;;4.70;3.63;;;23.10;97.80;;;;;;10120577;28;20414;-59
2021/08/22 08:28:46;;;;;;;4.65;2.88;;;23.30;97.50;;;;;;10112792;28;20517;-60
2021/08/22 08:33:37;;;;;;;5.32;3.10;;;23.30;97.30;;;;;;10111137;28;20056;-61
2021/08/22 08:38:28;;;;;;;6.70;3.92;;;23.00;97.40;;;;;;10107120;28;20415;-59
2021/08/22 08:43:18;;;;;;;5.50;3.00;;;22.70;97.40;;;;;;10115487;28;20557;-62
2021/08/22 08:48:10;;;;;;;5.10;2.97;;;22.70;97.80;;;;;;10108140;28;20335;-60
2021/08/22 08:53:08;;;;;;;5.45;3.05;;;22.80;97.80;;;;;;10108401;28;20454;-63
2021/08/22 08:58:00;;;;;;;4.60;3.47;;;22.90;97.80;;;;;;10113723;28;20506;-61
2021/08/22 09:02:50;;;;;;;5.78;3.38;;;22.80;97.50;;;;;;10112697;28;20076;-61
2021/08/22 09:07:53;;;;;;;6.38;3.10;;;22.90;97.80;;;;;;10109833;28;20037;-59
2021/08/22 09:13:37;;;;;;;5.55;3.70;;;22.80;97.70;;;;;;10114608;28;21128;-61
2021/08/22 09:18:46;;;;;;;4.15;2.88;;;22.80;97.80;;;;;;10110994;28;20032;-60
2021/08/22 09:24:27;;;;;;;3.65;2.78;;;22.80;97.90;;;;;;10114608;28;20032;-59
2021/08/22 09:29:43;;;;;;;5.32;2.92;;;22.70;97.80;;;;;;10074467;28;20372;-62
2021/08/22 09:34:58;;;;;;;4.70;3.08;;;22.70;97.80;;;;;;10115600;28;20108;-61
2021/08/22 09:40:22;;;;;;;3.15;2.83;;;22.70;98.00;;;;;;10114108;28;20048;-61
2021/08/22 09:45:54;;;;;;;3.55;2.83;;;22.80;97.90;;;;;;10114184;28;20028;-60
2021/08/22 09:51:06;;;;;;;4.95;3.15;;;22.90;97.80;;;;;;10084421;28;20045;-60
2021/08/22 09:56:34;;;;;;;6.00;3.50;;;22.80;97.90;;;;;;10110857;28;20032;-61
2021/08/22 10:01:42;;;;;;;5.78;4.22;;;22.40;97.40;;;;;;10117620;28;20036;-60
2021/08/22 10:07:07;;;;;;;5.70;3.53;;;22.40;97.70;;;;;;10115546;28;20117;-60
2021/08/22 10:12:02;;;;;;;3.95;3.05;;;22.30;97.60;;;;;;10109580;28;20033;-61
2021/08/22 10:16:53;;;;;;;6.25;3.58;;;22.20;97.80;;;;;;10113421;28;20080;-59
2021/08/22 10:22:16;;;;;;;4.40;3.10;;;22.20;97.90;;;;;;10115399;28;20041;-60
2021/08/22 10:27:13;;;;;;;6.13;3.25;;;22.20;97.70;;;;;;10115153;28;20454;-60
2021/08/22 10:32:06;;;;;;;4.50;3.25;;;22.20;97.80;;;;;;10126109;28;20025;-60
2021/08/22 10:36:58;;;;;;;4.25;2.92;;;22.00;97.90;;;;;;10097470;28;20148;-60
2021/08/22 10:41:52;;;;;;;4.28;3.10;;;21.70;97.30;;;;;;10117809;28;20032;-64
2021/08/22 10:46:46;;;;;;;5.53;3.60;;;21.60;97.40;;;;;;10115771;28;20060;-61
2021/08/22 10:51:36;;;;;;;6.17;3.00;;;21.40;97.10;;;;;;10119436;28;20357;-61
2021/08/22 10:56:29;;;;;;;6.85;4.28;;;21.30;97.00;;;;;;10113501;28;20016;-61
2021/08/22 11:01:19;;;;;;;4.65;2.97;;;21.30;96.90;;;;;;10101659;28;20120;-61
2021/08/22 11:06:11;;;;;;;5.68;3.22;;;21.20;96.60;;;;;;10118157;28;20095;-61
2021/08/22 11:11:04;;;;;;;5.18;2.60;;;21.30;96.70;;;;;;10114837;28;20545;-61
2021/08/22 11:15:55;;;;;;;4.00;2.90;;;21.20;96.60;;;;;;10114503;28;20048;-61
2021/08/22 11:20:46;;;;;;;5.32;2.90;;;21.30;96.70;;;;;;10121880;28;20051;-60
2021/08/22 11:25:36;;;;;;;4.57;2.80;;;21.30;96.80;;;;;;10119423;28;20386;-61
2021/08/22 11:30:27;;;;;;;4.90;2.70;;;21.20;96.80;;;;;;10118640;28;20032;-61
2021/08/22 11:35:24;;;;;;;5.13;2.47;;;21.10;96.80;;;;;;10115145;28;20025;-61
2021/08/22 11:40:17;;;;;;;3.45;2.33;;;21.10;96.90;;;;;;10108898;28;20041;-61
2021/08/22 11:45:11;;;;;;;3.53;2.10;;;21.00;97.00;;;;;;10120821;28;20028;-60
2021/08/22 11:50:06;;;;;;;2.50;2.00;;;21.20;97.10;;;;;;10115474;28;20033;-61
2021/08/22 11:54:57;;;;;;;;;;;21.60;96.80;;;;;;10120953;28;20459;-60
2021/08/22 12:00:19;;;;;;;2.90;2.00;;;21.70;96.80;;;;;;10115624;28;19921;-59
2021/08/22 12:05:24;;;;;;;3.78;2.22;;;21.50;96.60;;;;;;10099852;28;20601;-61
2021/08/22 12:10:23;;;;;;;2.20;1.50;;;21.50;97.00;;;;;;10116020;28;20142;-61
2021/08/22 12:15:15;;;;;;;4.55;2.45;;;21.40;97.30;;;;;;10114629;28;20036;-61
2021/08/22 12:20:21;;;;;;;4.55;2.42;;;21.50;97.40;;;;;;10122168;28;20040;-61
2021/08/22 12:25:25;;;;;;;3.88;2.00;;;21.40;97.20;;;;;;10111458;28;20032;-61
2021/08/22 12:30:15;;;;;;;2.17;1.80;;;21.50;97.10;;;;;;10113075;28;20044;-61
2021/08/22 12:35:08;;;;;;;3.45;1.80;;;21.60;97.40;;;;;;10114846;28;20123;-61
2021/08/22 12:40:05;;;;;;;4.47;2.00;;;21.70;97.10;;;;;;10123087;28;20291;-60
2021/08/22 12:44:57;;;;;;;2.03;1.77;;;22.10;97.30;;;;;;10114804;28;20031;-62
2021/08/22 12:49:47;;;;;;;1.83;1.10;;;22.30;96.40;;;;;;10110972;28;20041;-62
2021/08/22 12:54:38;;;;;;;1.60;1.20;;;22.90;96.50;;;;;;10112274;28;20028;-62
2021/08/22 12:59:29;;;;;;;1.83;0.93;;;23.10;96.10;;;;;;10092309;28;20060;-62
2021/08/22 13:04:22;;;;;;;1.30;0.73;;;23.30;96.00;;;;;;10117140;28;20028;-62
2021/08/22 13:09:13;;;;;;;1.33;1.00;;;23.10;96.20;;;;;;10109597;28;20111;-62
2021/08/22 13:14:05;;;;;;;1.60;0.88;;;23.00;95.90;;;;;;10109061;28;20124;-61
2021/08/22 13:18:55;;;;;;;1.25;1.10;;;22.90;96.00;;;;;;10097875;28;20039;-61
2021/08/22 13:23:47;;;;;;;1.35;0.77;;;22.70;96.00;;;;;;10114186;28;20119;-60
2021/08/22 13:28:38;;;;;;;1.35;0.93;;;22.60;96.10;;;;;;10114068;28;20100;-61
2021/08/22 13:33:29;;;;;;;2.08;1.50;;;22.40;96.00;;;;;;10114994;28;20048;-60
2021/08/22 13:38:20;;;;;;;2.00;1.10;;;22.20;96.10;;;;;;10116324;28;20076;-61
2021/08/22 13:43:12;;;;;;;4.05;0.93;;;21.90;96.10;;;;;;10097831;28;20033;-62
2021/08/22 13:48:03;;;;;;;1.65;1.23;;;21.90;96.10;;;;;;10100940;28;20031;-61
2021/08/22 13:52:54;;;;;;;3.42;1.30;;;21.90;96.20;;;;;;10114693;28;20037;-62
2021/08/22 13:57:44;;;;;;;3.50;1.77;;;21.90;96.10;;;;;;10119449;28;20523;-61
2021/08/22 14:02:35;;;;;;;3.95;1.50;;;21.50;95.60;;;;;;10122143;28;20035;-61
2021/08/22 14:07:26;;;;;;;2.13;1.20;;;21.10;95.30;;;;;;10125379;28;20314;-62
2021/08/22 14:12:17;;;;;;;2.83;1.67;;;21.00;95.30;;;;;;10110470;28;20116;-61
2021/08/22 14:17:07;;;;;;;2.05;1.23;;;20.70;95.20;;;;;;10114440;28;20534;-61
2021/08/22 14:22:00;;;;;;;2.40;1.40;;;19.70;94.90;;;;;;10104454;28;20110;-60
2021/08/22 14:26:50;;;;;;;1.75;1.08;;;19.30;96.30;;;;;;10101030;28;20040;-59
2021/08/22 14:31:41;;;;;;;2.13;1.27;;;20.00;95.70;;;;;;10115553;28;20522;-59
2021/08/22 14:36:35;;;;;;;2.03;1.25;;;20.90;95.20;;;;;;10125028;28;20044;-60
2021/08/22 14:41:25;;;;;;;1.50;1.10;;;22.00;93.90;;;;;;10122831;28;20021;-60
2021/08/22 14:46:16;;;;;;;2.08;1.10;;;23.30;93.00;;;;;;10124369;28;20483;-60
2021/08/22 14:51:07;;;;;;;2.30;1.40;;;24.80;89.30;;;;;;10116984;28;20025;-59
2021/08/22 14:55:57;;;;;;;2.50;1.30;;;23.50;89.40;;;;;;10122667;28;20063;-60
2021/08/22 15:00:48;;;;;;;3.72;1.35;;;22.40;91.00;;;;;;10110880;28;20101;-62
2021/08/22 15:05:38;;;;;;;1.88;1.70;;;24.00;87.90;;;;;;10118609;28;20107;-60
2021/08/22 15:10:32;;;;;;;4.60;1.60;;;25.10;89.60;;;;;;10122139;28;20017;-61
2021/08/22 15:15:23;;;;;;;;;;;26.20;86.40;;;;;;10123762;28;20029;-61
2021/08/22 15:20:14;;;;;;;1.80;1.00;;;25.30;83.80;;;;;;10117723;28;19912;-64
2021/08/22 15:25:06;;;;;;;2.40;1.58;;;27.10;85.60;;;;;;10114247;28;20459;-61
2021/08/22 15:29:57;;;;;;;2.13;1.40;;;28.00;79.10;;;;;;10119900;28;20032;-62
2021/08/22 15:34:48;;;;;;;2.67;1.45;;;28.20;79.30;;;;;;10112736;28;20116;-62
2021/08/22 15:39:39;;;;;;;2.38;1.35;;;29.10;79.00;;;;;;10115036;28;20045;-62
2021/08/22 15:44:29;;;;;;;2.88;1.17;;;29.30;77.30;;;;;;10122050;28;20025;-63
2021/08/22 15:49:20;;;;;;;3.10;1.38;;;30.30;78.00;;;;;;10122489;28;20033;-64
2021/08/22 15:54:11;;;;;;;2.28;1.55;;;30.60;74.70;;;;;;10114289;28;20031;-61
2021/08/22 15:59:02;;;;;;;2.25;1.40;;;29.50;75.10;;;;;;10111430;28;20076;-62
2021/08/22 16:03:52;;;;;;;2.30;1.45;;;29.50;75.20;;;;;;10112452;28;20059;-60
2021/08/22 16:08:43;;;;;;;2.40;1.98;;;26.50;82.00;;;;;;10110021;28;20036;-60
2021/08/22 16:13:34;;;;;;;2.92;1.88;;;24.50;84.80;;;;;;10108509;28;20012;-61
2021/08/22 16:18:30;;;;;;;1.80;1.63;;;23.60;88.10;;;;;;10105576;28;20569;-60
2021/08/22 16:23:21;;;;;;;3.65;1.85;;;23.20;89.50;;;;;;10126609;28;20032;-62
2021/08/22 16:28:12;;;;;;;3.83;1.70;;;22.90;89.00;;;;;;10109559;28;20025;-60
2021/08/22 16:33:03;;;;;;;1.98;1.33;;;22.80;89.20;;;;;;10124589;28;20052;-60
2021/08/22 16:37:53;;;;;;;1.77;1.38;;;23.00;88.90;;;;;;10107431;28;20040;-59
2021/08/22 16:42:45;;;;;;;4.70;1.98;;;23.20;88.10;;;;;;10113554;28;20020;-61
2021/08/22 16:47:36;;;;;;;2.78;2.05;;;25.00;85.60;;;;;;10116736;28;20029;-60
2021/08/22 16:52:27;;;;;;;2.70;1.40;;;27.60;79.60;;;;;;10111968;28;20027;-61
2021/08/22 16:57:18;;;;;;;4.82;2.13;;;26.30;81.90;;;;;;10103898;28;20419;-60
2021/08/22 17:02:09;;;;;;;3.65;1.65;;;26.40;82.00;;;;;;10110800;28;20029;-61
2021/08/22 17:06:59;;;;;;;3.15;1.90;;;29.00;75.70;;;;;;10094041;28;20300;-63
2021/08/22 17:11:50;;;;;;;4.43;1.92;;;25.80;79.40;;;;;;10113666;28;20090;-62
2021/08/22 17:16:40;;;;;;;3.35;2.00;;;24.90;82.50;;;;;;10092409;28;20025;-61
2021/08/22 17:21:32;;;;;;;3.45;2.08;;;25.60;78.00;;;;;;10122948;28;20031;-63
2021/08/22 17:26:23;;;;;;;6.43;1.90;;;26.80;72.70;;;;;;10118184;28;20059;-62
2021/08/22 17:31:14;;;;;;;2.90;1.73;;;24.90;76.50;;;;;;10110736;28;20439;-63
2021/08/22 17:41:19;;;;;;;4.22;2.47;;;23.00;80.30;;;;;;9941978;23;20068;-58
2021/08/22 17:46:09;;;;;;;3.88;1.58;;;22.60;80.70;;;;;;9933409;28;20037;-57
2021/08/22 17:51:00;;;;;;;4.38;1.42;;;22.40;81.00;;;;;;9935346;28;20109;-57
2021/08/22 17:55:51;;;;;;;5.10;2.13;;;22.20;81.20;;;;;;9935666;28;20101;-60
2021/08/22 18:00:42;;;;;;;5.45;2.08;;;22.10;81.50;;;;;;9937755;28;20432;-58
2021/08/22 18:05:34;;;;;;;5.00;2.90;;;22.00;81.90;;;;;;9927803;28;20444;-58
2021/08/22 18:10:25;;;;;;;3.17;2.17;;;21.90;82.60;;;;;;9916169;28;20082;-56
2021/08/22 18:15:16;;;;;;;3.50;1.90;;;21.80;83.20;;;;;;9921149;28;20082;-58
2021/08/22 18:20:07;;;;;;;2.72;1.75;;;21.80;83.60;;;;;;9915494;28;20579;-58
2021/08/22 18:24:58;;;;;;;3.72;1.92;;;21.60;84.00;;;;;;9916833;28;20077;-59
2021/08/22 18:29:48;;;;;;;4.30;2.05;;;21.60;84.30;;;;;;9916678;28;20090;-59
2021/08/22 18:34:39;;;;;;;7.28;2.85;;;21.70;84.50;;;;;;9896189;28;20063;-58
2021/08/22 18:39:30;;;;;;;3.05;1.70;;;21.70;84.70;;;;;;9928859;28;20416;-58
2021/08/22 18:44:21;;;;;;;5.03;2.45;;;21.60;85.20;;;;;;9938773;28;20034;-60
2021/08/22 18:49:12;;;;;;;3.28;1.50;;;21.50;85.80;;;;;;9937623;28;20109;-58
2021/08/22 18:54:03;;;;;;;2.70;1.73;;;21.30;86.00;;;;;;9936398;28;20047;-58
2021/08/22 18:58:54;;;;;;;4.10;2.13;;;21.20;86.50;;;;;;9953531;28;20176;-57
2021/08/22 19:03:44;;;;;;;5.07;2.03;;;21.10;86.60;;;;;;9937611;28;20093;-56
2021/08/22 19:08:35;;;;;;;3.15;1.65;;;21.00;86.60;;;;;;9939097;28;20496;-58
2021/08/22 19:13:26;;;;;;;3.85;1.88;;;20.90;86.60;;;;;;9917215;28;20050;-58
2021/08/22 19:18:17;;;;;;;2.67;1.63;;;20.80;86.60;;;;;;9903910;28;20047;-57
2021/08/22 19:23:08;;;;;;;4.07;1.98;;;20.90;86.60;;;;;;9916767;28;20049;-57
2021/08/22 19:34:04;;;;;;;4.78;2.58;;;20.70;84.80;;;;;;10172193;27;20323;-58
2021/08/22 19:38:55;;;;;;;4.30;1.92;;;20.60;86.30;;;;;;10165208;28;20248;-58
2021/08/22 19:43:45;;;;;;;6.45;1.65;;;20.60;86.50;;;;;;10162724;28;20095;-56
2021/08/22 19:48:36;;;;;;;3.45;2.13;;;20.70;86.30;;;;;;10164152;28;20055;-56
2021/08/22 19:53:27;;;;;;;4.78;2.20;;;20.70;86.00;;;;;;10167000;28;20046;-58
2021/08/22 19:58:17;;;;;;;3.10;2.28;;;20.70;86.10;;;;;;10162525;28;20078;-57
2021/08/22 20:03:08;;;;;;;3.70;2.22;;;20.60;86.30;;;;;;10163824;28;20059;-56
2021/08/22 20:07:59;;;;;;;4.15;2.47;;;20.60;86.50;;;;;;10160570;28;20103;-57
2021/08/22 20:12:49;;;;;;;5.10;2.08;;;20.50;86.50;;;;;;10165161;28;20032;-59
2021/08/22 20:17:44;;;;;;;2.90;2.05;;;20.50;86.40;;;;;;10164179;28;20028;-58
2021/08/22 20:22:35;;;;;;;2.40;1.65;;;20.60;86.10;;;;;;10160294;28;20429;-56
2021/08/22 20:27:26;;;;;;;5.82;1.80;;;20.60;86.00;;;;;;10163707;28;20041;-58
2021/08/22 20:32:16;;;;;;;3.00;1.60;;;20.50;86.00;;;;;;10162858;28;20070;-58
2021/08/22 20:37:07;;;;;;;3.10;1.48;;;20.40;85.80;;;;;;10161970;28;20029;-59
2021/08/22 20:41:58;;;;;;;2.92;1.83;;;20.30;85.70;;;;;;10153387;28;20025;-60
2021/08/22 20:46:48;;;;;;;2.15;1.33;;;20.30;85.40;;;;;;10136505;28;20055;-59
2021/08/22 20:51:39;;;;;;;2.17;1.50;;;20.30;85.00;;;;;;10137924;28;20085;-59
2021/08/22 20:56:30;;;;;;;2.83;1.55;;;20.30;84.70;;;;;;10139364;28;20339;-60
2021/08/22 21:01:21;;;;;;;4.38;2.30;;;20.30;84.50;;;;;;10136746;28;20031;-58
2021/08/22 21:06:11;;;;;;;5.20;1.70;;;20.50;84.30;;;;;;10135542;28;20028;-58
2021/08/22 21:11:02;;;;;;;4.97;2.00;;;20.60;83.90;;;;;;10131418;28;20074;-60
2021/08/22 21:15:53;;;;;;;2.35;1.60;;;20.70;83.80;;;;;;10136298;28;20032;-61
2021/08/22 21:20:44;;;;;;;3.05;2.13;;;20.70;83.80;;;;;;10131547;28;20073;-59
2021/08/22 21:25:35;;;;;;;3.00;1.85;;;20.70;83.80;;;;;;10129577;28;20033;-59
2021/08/22 21:30:26;;;;;;;4.60;1.88;;;20.70;83.90;;;;;;10129628;28;20052;-60
2021/08/22 21:35:16;;;;;;;2.33;1.60;;;20.80;83.90;;;;;;10135979;28;20021;-59
2021/08/22 21:40:07;;;;;;;3.28;1.60;;;20.70;84.00;;;;;;10131146;28;20356;-59
2021/08/22 21:44:58;;;;;;;2.17;1.40;;;20.60;83.90;;;;;;10132260;28;20398;-58
2021/08/22 21:49:49;;;;;;;4.93;2.45;;;20.50;84.10;;;;;;10132932;28;20032;-59
2021/08/22 21:54:39;;;;;;;4.80;2.45;;;20.50;84.20;;;;;;10126367;28;20036;-60
2021/08/22 21:59:30;;;;;;;3.40;2.20;;;20.50;84.20;;;;;;10132852;28;20035;-59
2021/08/22 22:04:21;;;;;;;4.07;2.60;;;20.40;84.20;;;;;;10129761;28;20036;-58
2021/08/22 22:09:12;;;;;;;4.07;2.00;;;20.30;84.40;;;;;;10133703;28;20078;-58
2021/08/22 22:14:02;;;;;;;4.35;1.85;;;20.30;84.40;;;;;;10130076;28;20044;-59
2021/08/22 22:18:53;;;;;;;2.25;1.30;;;20.30;84.30;;;;;;10131991;28;20025;-60
2021/08/22 22:23:45;;;;;;;3.03;1.40;;;20.20;84.40;;;;;;10127673;28;20051;-58
2021/08/22 22:28:36;;;;;;;1.70;1.30;;;20.20;85.00;;;;;;10131213;28;20562;-56
2021/08/22 22:33:26;;;;;;;2.33;1.83;;;20.10;84.70;;;;;;10126631;28;20059;-58
2021/08/22 22:38:17;;;;;;;3.53;1.63;;;20.10;84.70;;;;;;10124767;28;20165;-58
2021/08/22 22:43:08;;;;;;;1.95;1.40;;;20.00;84.60;;;;;;10127509;28;20503;-60
2021/08/22 22:47:58;;;;;;;2.38;1.40;;;20.00;84.60;;;;;;10127917;28;20507;-60
2021/08/22 22:52:49;;;;;;;1.85;1.38;;;19.90;84.60;;;;;;10124857;28;20028;-59
2021/08/22 22:57:39;;;;;;;1.77;1.42;;;19.70;84.90;;;;;;10129827;28;20032;-58
2021/08/22 23:02:30;;;;;;;4.43;1.30;;;19.70;84.70;;;;;;10128498;28;20105;-58
2021/08/22 23:07:21;;;;;;;2.97;1.10;;;19.80;84.70;;;;;;10128201;28;20028;-59
2021/08/22 23:12:11;;;;;;;2.20;1.35;;;19.80;84.60;;;;;;10130967;28;20567;-58
2021/08/22 23:17:02;;;;;;;1.58;1.30;;;19.80;84.50;;;;;;10126742;28;20078;-59
2021/08/22 23:21:53;;;;;;;1.90;1.10;;;19.80;84.40;;;;;;10131172;28;20020;-58
2021/08/22 23:26:43;;;;;;;1.65;1.00;;;19.90;84.10;;;;;;10125423;28;20078;-58
2021/08/22 23:31:34;;;;;;;3.20;1.08;;;19.80;84.20;;;;;;10128116;28;20567;-58
2021/08/22 23:36:25;;;;;;;1.58;0.85;;;19.70;84.10;;;;;;10124300;28;21104;-58
2021/08/22 23:41:15;;;;;;;1.25;1.15;;;19.80;83.80;;;;;;10129350;28;20032;-58
2021/08/22 23:46:06;;;;;;;2.45;1.30;;;19.80;83.80;;;;;;10130865;28;20025;-58
2021/08/22 23:51:04;;;;;;;2.38;1.27;;;19.70;83.70;;;;;;10131416;28;20532;-58
2021/08/22 23:55:55;;;;;;;1.75;1.08;;;19.60;83.60;;;;;;10124175;28;20028;-58
